sensor_id;sensor_type;location;lat;lon;timestamp;pressure;altitude;pressure_sealevel;temperature;humidity
7168;BME280;3625;51.762;14.320;2023-05-15T00:01:04;100276.31;;;11.26;100.00
7168;BME280;3625;51.762;14.320;2023-05-15T00:03:32;100225.41;;;10.84;100.00
7168;BME280;3625;51.762;14.320;2023-05-15T00:06:01;100276.94;;;11.03;100.00
7168;BME280;3625;51.762;14.320;2023-05-15T00:08:29;100170.50;;;10.27;100.00
7168;BME280;3625;51.762;14.320;2023-05-15T00:10:58;100241.69;;;10.70;100.00
7168;BME280;3625;51.762;14.320;2023-05-15T00:13:28;100269.56;;;10.82;100.00
7168;BME280;3625;51.762;14.320;2023-05-15T00:15:57;100192.41;;;10.32;100.00
7168;BME280;3625;51.762;14.320;2023-05-15T00:18:27;100153.34;;;10.08;100.00
7168;BME280;3625;51.762;14.320;2023-05-15T00:20:55;100261.13;;;10.68;100.00
7168;BME280;3625;51.762;14.320;2023-05-15T00:23:24;100222.19;;;10.39;100.00
7168;BME280;3625;51.762;14.320;2023-05-15T00:25:52;100259.59;;;10.59;100.00
7168;BME280;3625;51.762;14.320;2023-05-15T00:28:21;100242.31;;;10.46;100.00
7168;BME280;3625;51.762;14.320;2023-05-15T00:30:49;100190.84;;;10.24;100.00
7168;BME280;3625;51.762;14.320;2023-05-15T00:33:18;100249.03;;;10.57;100.00
7168;BME280;3625;51.762;14.320;2023-05-15T00:35:48;100250.03;;;10.53;100.00
7168;BME280;3625;51.762;14.320;2023-05-15T00:38:17;100086.75;;;9.58;100.00
7168;BME280;3625;51.762;14.320;2023-05-15T00:40:46;100244.19;;;10.41;100.00
7168;BME280;3625;51.762;14.320;2023-05-15T00:43:16;100240.78;;;10.36;100.00
7168;BME280;3625;51.762;14.320;2023-05-15T00:45:46;100222.59;;;10.22;100.00
7168;BME280;3625;51.762;14.320;2023-05-15T00:48:15;100205.16;;;10.13;100.00
7168;BME280;3625;51.762;14.320;2023-05-15T00:50:44;100233.81;;;10.32;100.00
7168;BME280;3625;51.762;14.320;2023-05-15T00:53:16;100208.53;;;10.21;100.00
7168;BME280;3625;51.762;14.320;2023-05-15T00:55:47;100225.75;;;10.38;100.00
7168;BME280;3625;51.762;14.320;2023-05-15T00:58:20;100196.97;;;10.26;100.00
7168;BME280;3625;51.762;14.320;2023-05-15T01:00:51;100222.13;;;10.42;100.00
7168;BME280;3625;51.762;14.320;2023-05-15T01:03:20;100192.59;;;10.25;100.00
7168;BME280;3625;51.762;14.320;2023-05-15T01:05:49;100067.50;;;9.53;100.00
7168;BME280;3625;51.762;14.320;2023-05-15T01:08:26;100222.13;;;10.42;100.00
7168;BME280;3625;51.762;14.320;2023-05-15T01:10:57;100213.31;;;10.41;100.00
7168;BME280;3625;51.762;14.320;2023-05-15T01:13:26;100209.72;;;10.44;100.00
7168;BME280;3625;51.762;14.320;2023-05-15T01:15:56;100183.78;;;10.24;100.00
7168;BME280;3625;51.762;14.320;2023-05-15T01:18:25;99989.97;;;9.22;100.00
7168;BME280;3625;51.762;14.320;2023-05-15T01:21:30;100186.09;;;10.38;100.00
7168;BME280;3625;51.762;14.320;2023-05-15T01:24:30;100212.84;;;10.59;100.00
7168;BME280;3625;51.762;14.320;2023-05-15T01:27:17;100209.22;;;10.64;100.00
7168;BME280;3625;51.762;14.320;2023-05-15T01:29:57;100001.66;;;9.47;100.00
7168;BME280;3625;51.762;14.320;2023-05-15T01:32:42;100208.00;;;10.75;100.00
7168;BME280;3625;51.762;14.320;2023-05-15T01:35:20;100205.19;;;10.81;100.00
7168;BME280;3625;51.762;14.320;2023-05-15T01:38:07;100185.09;;;10.74;100.00
7168;BME280;3625;51.762;14.320;2023-05-15T01:40:41;100169.19;;;10.76;100.00
7168;BME280;3625;51.762;14.320;2023-05-15T01:43:21;100195.78;;;11.02;100.00
7168;BME280;3625;51.762;14.320;2023-05-15T01:45:52;100031.59;;;10.14;100.00
7168;BME280;3625;51.762;14.320;2023-05-15T01:48:24;100185.00;;;11.10;100.00
7168;BME280;3625;51.762;14.320;2023-05-15T01:51:00;100189.94;;;11.22;100.00
7168;BME280;3625;51.762;14.320;2023-05-15T01:53:31;100185.38;;;11.27;100.00
7168;BME280;3625;51.762;14.320;2023-05-15T01:56:05;100187.78;;;11.34;100.00
7168;BME280;3625;51.762;14.320;2023-05-15T01:58:39;100188.41;;;11.43;100.00
7168;BME280;3625;51.762;14.320;2023-05-15T02:01:09;100174.22;;;11.45;100.00
7168;BME280;3625;51.762;14.320;2023-05-15T02:03:39;100197.59;;;11.60;100.00
7168;BME280;3625;51.762;14.320;2023-05-15T02:06:09;100205.41;;;11.65;100.00
7168;BME280;3625;51.762;14.320;2023-05-15T02:08:40;100190.34;;;11.67;100.00
7168;BME280;3625;51.762;14.320;2023-05-15T02:11:10;100189.03;;;11.82;100.00
7168;BME280;3625;51.762;14.320;2023-05-15T02:13:42;100071.03;;;11.14;100.00
7168;BME280;3625;51.762;14.320;2023-05-15T02:16:11;100037.06;;;10.99;100.00
7168;BME280;3625;51.762;14.320;2023-05-15T02:18:40;100194.88;;;11.93;100.00
7168;BME280;3625;51.762;14.320;2023-05-15T02:21:09;100178.09;;;11.92;100.00
7168;BME280;3625;51.762;14.320;2023-05-15T02:23:37;100166.66;;;11.90;100.00
7168;BME280;3625;51.762;14.320;2023-05-15T02:26:22;100179.38;;;12.07;100.00
7168;BME280;3625;51.762;14.320;2023-05-15T02:29:07;100012.72;;;11.16;100.00
7168;BME280;3625;51.762;14.320;2023-05-15T02:31:50;100063.84;;;11.46;100.00
7168;BME280;3625;51.762;14.320;2023-05-15T02:34:31;100148.72;;;11.98;100.00
7168;BME280;3625;51.762;14.320;2023-05-15T02:37:03;100161.38;;;12.17;100.00
7168;BME280;3625;51.762;14.320;2023-05-15T02:39:35;100173.31;;;12.28;100.00
7168;BME280;3625;51.762;14.320;2023-05-15T02:42:06;100061.38;;;11.67;100.00
7168;BME280;3625;51.762;14.320;2023-05-15T02:44:41;100168.81;;;12.32;100.00
7168;BME280;3625;51.762;14.320;2023-05-15T02:47:11;100164.41;;;12.31;100.00
7168;BME280;3625;51.762;14.320;2023-05-15T02:49:44;100160.03;;;12.30;100.00
7168;BME280;3625;51.762;14.320;2023-05-15T02:52:13;100158.28;;;12.29;100.00
7168;BME280;3625;51.762;14.320;2023-05-15T02:54:42;100147.66;;;12.29;100.00
7168;BME280;3625;51.762;14.320;2023-05-15T02:57:11;99971.69;;;11.29;100.00
7168;BME280;3625;51.762;14.320;2023-05-15T02:59:41;99958.66;;;11.23;100.00
7168;BME280;3625;51.762;14.320;2023-05-15T03:02:09;100126.63;;;12.24;100.00
7168;BME280;3625;51.762;14.320;2023-05-15T03:04:38;100087.66;;;12.01;100.00
7168;BME280;3625;51.762;14.320;2023-05-15T03:07:07;100026.84;;;11.69;100.00
7168;BME280;3625;51.762;14.320;2023-05-15T03:09:35;99888.22;;;10.91;100.00
7168;BME280;3625;51.762;14.320;2023-05-15T03:12:05;100113.19;;;12.29;100.00
7168;BME280;3625;51.762;14.320;2023-05-15T03:14:33;100114.84;;;12.33;100.00
7168;BME280;3625;51.762;14.320;2023-05-15T03:17:07;100109.53;;;12.33;100.00
7168;BME280;3625;51.762;14.320;2023-05-15T03:19:36;100114.88;;;12.31;100.00
7168;BME280;3625;51.762;14.320;2023-05-15T03:22:04;100120.13;;;12.33;100.00
7168;BME280;3625;51.762;14.320;2023-05-15T03:24:33;100105.47;;;12.23;100.00
7168;BME280;3625;51.762;14.320;2023-05-15T03:27:02;100124.66;;;12.29;100.00
7168;BME280;3625;51.762;14.320;2023-05-15T03:29:31;100102.16;;;12.16;100.00
7168;BME280;3625;51.762;14.320;2023-05-15T03:31:59;100114.19;;;12.26;100.00
7168;BME280;3625;51.762;14.320;2023-05-15T03:34:29;100083.00;;;12.08;100.00
7168;BME280;3625;51.762;14.320;2023-05-15T03:36:58;100075.34;;;11.99;100.00
7168;BME280;3625;51.762;14.320;2023-05-15T03:39:26;100103.03;;;12.17;100.00
7168;BME280;3625;51.762;14.320;2023-05-15T03:41:55;100115.06;;;12.27;100.00
7168;BME280;3625;51.762;14.320;2023-05-15T03:44:23;100115.97;;;12.26;100.00
7168;BME280;3625;51.762;14.320;2023-05-15T03:46:52;100116.78;;;12.28;100.00
7168;BME280;3625;51.762;14.320;2023-05-15T03:49:21;100107.84;;;12.30;100.00
7168;BME280;3625;51.762;14.320;2023-05-15T03:51:51;100109.47;;;12.34;100.00
7168;BME280;3625;51.762;14.320;2023-05-15T03:54:20;100068.50;;;12.18;100.00
7168;BME280;3625;51.762;14.320;2023-05-15T03:56:52;100097.56;;;12.46;100.00
7168;BME280;3625;51.762;14.320;2023-05-15T03:59:20;100100.06;;;12.51;100.00
7168;BME280;3625;51.762;14.320;2023-05-15T04:01:49;100100.75;;;12.56;100.00
7168;BME280;3625;51.762;14.320;2023-05-15T04:04:30;100098.84;;;12.59;100.00
7168;BME280;3625;51.762;14.320;2023-05-15T04:07:01;100101.41;;;12.62;100.00
7168;BME280;3625;51.762;14.320;2023-05-15T04:09:29;99962.78;;;11.84;100.00
7168;BME280;3625;51.762;14.320;2023-05-15T04:11:58;100035.25;;;12.33;100.00
7168;BME280;3625;51.762;14.320;2023-05-15T04:14:27;100058.81;;;12.42;100.00
7168;BME280;3625;51.762;14.320;2023-05-15T04:16:55;100095.97;;;12.65;100.00
7168;BME280;3625;51.762;14.320;2023-05-15T04:19:28;99894.41;;;11.43;100.00
7168;BME280;3625;51.762;14.320;2023-05-15T04:21:57;100088.06;;;12.64;100.00
7168;BME280;3625;51.762;14.320;2023-05-15T04:24:26;100084.53;;;12.63;100.00
7168;BME280;3625;51.762;14.320;2023-05-15T04:26:55;100080.97;;;12.64;100.00
7168;BME280;3625;51.762;14.320;2023-05-15T04:29:23;100014.38;;;12.24;100.00
7168;BME280;3625;51.762;14.320;2023-05-15T04:31:52;100080.91;;;12.66;100.00
7168;BME280;3625;51.762;14.320;2023-05-15T04:34:21;100039.19;;;12.46;100.00
7168;BME280;3625;51.762;14.320;2023-05-15T04:36:49;100003.53;;;12.30;100.00
7168;BME280;3625;51.762;14.320;2023-05-15T04:39:18;100077.09;;;12.73;100.00
7168;BME280;3625;51.762;14.320;2023-05-15T04:41:48;100077.25;;;12.70;100.00
7168;BME280;3625;51.762;14.320;2023-05-15T04:44:16;100038.94;;;12.54;100.00
7168;BME280;3625;51.762;14.320;2023-05-15T04:46:45;100062.38;;;12.64;100.00
7168;BME280;3625;51.762;14.320;2023-05-15T04:49:13;99889.94;;;11.69;100.00
7168;BME280;3625;51.762;14.320;2023-05-15T04:51:42;100058.66;;;12.70;100.00
7168;BME280;3625;51.762;14.320;2023-05-15T04:54:10;99996.00;;;12.42;100.00
7168;BME280;3625;51.762;14.320;2023-05-15T04:56:39;100011.53;;;12.53;100.00
7168;BME280;3625;51.762;14.320;2023-05-15T04:59:09;100039.91;;;12.74;100.00
7168;BME280;3625;51.762;14.320;2023-05-15T05:01:38;100015.63;;;12.62;100.00
7168;BME280;3625;51.762;14.320;2023-05-15T05:04:06;100033.16;;;12.66;100.00
7168;BME280;3625;51.762;14.320;2023-05-15T05:06:35;100028.03;;;12.61;100.00
7168;BME280;3625;51.762;14.320;2023-05-15T05:09:06;99931.28;;;12.00;100.00
7168;BME280;3625;51.762;14.320;2023-05-15T05:11:35;99850.97;;;11.48;100.00
7168;BME280;3625;51.762;14.320;2023-05-15T05:14:05;100034.34;;;12.57;100.00
7168;BME280;3625;51.762;14.320;2023-05-15T05:16:36;100041.28;;;12.61;100.00
7168;BME280;3625;51.762;14.320;2023-05-15T05:19:05;100009.84;;;12.51;100.00
7168;BME280;3625;51.762;14.320;2023-05-15T05:21:34;100038.16;;;12.73;100.00
7168;BME280;3625;51.762;14.320;2023-05-15T05:24:02;100014.16;;;12.76;100.00
7168;BME280;3625;51.762;14.320;2023-05-15T05:26:31;100010.34;;;12.83;100.00
7168;BME280;3625;51.762;14.320;2023-05-15T05:28:59;99983.91;;;12.80;100.00
7168;BME280;3625;51.762;14.320;2023-05-15T05:31:28;100031.38;;;13.11;100.00
7168;BME280;3625;51.762;14.320;2023-05-15T05:33:58;100025.13;;;13.14;100.00
7168;BME280;3625;51.762;14.320;2023-05-15T05:36:26;100018.94;;;13.13;100.00
7168;BME280;3625;51.762;14.320;2023-05-15T05:38:55;100018.69;;;13.19;100.00
7168;BME280;3625;51.762;14.320;2023-05-15T05:41:25;99846.38;;;12.25;100.00
7168;BME280;3625;51.762;14.320;2023-05-15T05:44:00;100019.75;;;13.37;100.00
7168;BME280;3625;51.762;14.320;2023-05-15T05:46:31;99959.63;;;13.13;100.00
7168;BME280;3625;51.762;14.320;2023-05-15T05:49:07;99695.00;;;11.86;100.00
7168;BME280;3625;51.762;14.320;2023-05-15T05:51:36;99842.56;;;12.75;100.00
7168;BME280;3625;51.762;14.320;2023-05-15T05:54:05;100013.94;;;13.91;100.00
7168;BME280;3625;51.762;14.320;2023-05-15T05:56:45;100009.91;;;14.02;100.00
7168;BME280;3625;51.762;14.320;2023-05-15T05:59:14;100004.19;;;14.11;100.00
7168;BME280;3625;51.762;14.320;2023-05-15T06:01:42;100006.78;;;14.12;100.00
7168;BME280;3625;51.762;14.320;2023-05-15T06:04:12;99741.59;;;12.57;100.00
7168;BME280;3625;51.762;14.320;2023-05-15T06:06:44;100009.91;;;14.02;100.00
7168;BME280;3625;51.762;14.320;2023-05-15T06:09:13;99963.91;;;13.59;100.00
7168;BME280;3625;51.762;14.320;2023-05-15T06:11:41;100003.28;;;13.71;100.00
7168;BME280;3625;51.762;14.320;2023-05-15T06:14:10;99967.09;;;13.47;100.00
7168;BME280;3625;51.762;14.320;2023-05-15T06:16:38;100004.63;;;13.59;100.00
7168;BME280;3625;51.762;14.320;2023-05-15T06:19:07;99990.09;;;13.48;100.00
7168;BME280;3625;51.762;14.320;2023-05-15T06:21:37;100000.88;;;13.65;100.00
7168;BME280;3625;51.762;14.320;2023-05-15T06:24:05;99991.72;;;13.72;100.00
7168;BME280;3625;51.762;14.320;2023-05-15T06:26:34;99990.28;;;13.84;100.00
7168;BME280;3625;51.762;14.320;2023-05-15T06:29:03;99994.28;;;13.94;100.00
7168;BME280;3625;51.762;14.320;2023-05-15T06:31:31;99985.06;;;14.03;100.00
7168;BME280;3625;51.762;14.320;2023-05-15T06:34:00;99996.03;;;14.15;100.00
7168;BME280;3625;51.762;14.320;2023-05-15T06:36:29;99976.72;;;14.10;100.00
7168;BME280;3625;51.762;14.320;2023-05-15T06:38:58;99999.72;;;14.31;100.00
7168;BME280;3625;51.762;14.320;2023-05-15T06:41:27;100000.16;;;14.43;100.00
7168;BME280;3625;51.762;14.320;2023-05-15T06:43:55;99995.41;;;14.49;100.00
7168;BME280;3625;51.762;14.320;2023-05-15T06:46:25;99996.91;;;14.55;100.00
7168;BME280;3625;51.762;14.320;2023-05-15T06:48:54;99990.53;;;14.59;100.00
7168;BME280;3625;51.762;14.320;2023-05-15T06:51:23;99948.03;;;14.37;100.00
7168;BME280;3625;51.762;14.320;2023-05-15T06:53:54;99987.66;;;14.63;100.00
7168;BME280;3625;51.762;14.320;2023-05-15T06:56:25;99985.34;;;14.75;100.00
7168;BME280;3625;51.762;14.320;2023-05-15T06:58:56;99979.16;;;14.74;100.00
7168;BME280;3625;51.762;14.320;2023-05-15T07:01:25;99825.44;;;13.84;100.00
7168;BME280;3625;51.762;14.320;2023-05-15T07:03:59;99914.28;;;14.38;100.00
7168;BME280;3625;51.762;14.320;2023-05-15T07:06:28;99971.97;;;14.76;100.00
7168;BME280;3625;51.762;14.320;2023-05-15T07:08:59;99958.06;;;14.88;100.00
7168;BME280;3625;51.762;14.320;2023-05-15T07:11:30;99782.28;;;13.97;100.00
7168;BME280;3625;51.762;14.320;2023-05-15T07:14:04;99969.84;;;15.20;100.00
7168;BME280;3625;51.762;14.320;2023-05-15T07:16:33;99782.03;;;14.21;97.97
7168;BME280;3625;51.762;14.320;2023-05-15T07:19:02;99956.22;;;15.43;97.55
7168;BME280;3625;51.762;14.320;2023-05-15T07:21:30;99859.53;;;15.05;96.94
7168;BME280;3625;51.762;14.320;2023-05-15T07:23:59;99960.75;;;15.77;95.17
7168;BME280;3625;51.762;14.320;2023-05-15T07:26:30;99958.63;;;15.84;93.73
7168;BME280;3625;51.762;14.320;2023-05-15T07:29:12;99960.88;;;15.92;92.59
7168;BME280;3625;51.762;14.320;2023-05-15T07:31:41;99860.41;;;15.40;92.91
7168;BME280;3625;51.762;14.320;2023-05-15T07:34:11;99933.38;;;15.91;91.35
7168;BME280;3625;51.762;14.320;2023-05-15T07:36:39;99953.03;;;16.06;90.82
7168;BME280;3625;51.762;14.320;2023-05-15T07:39:07;99947.03;;;16.18;90.46
7168;BME280;3625;51.762;14.320;2023-05-15T07:41:38;99944.50;;;16.32;89.11
7168;BME280;3625;51.762;14.320;2023-05-15T07:44:09;99950.72;;;16.48;88.00
7168;BME280;3625;51.762;14.320;2023-05-15T07:46:39;99944.50;;;16.65;87.18
7168;BME280;3625;51.762;14.320;2023-05-15T07:49:07;99945.78;;;16.74;86.43
7168;BME280;3625;51.762;14.320;2023-05-15T07:51:36;99929.03;;;16.54;85.45
7168;BME280;3625;51.762;14.320;2023-05-15T07:54:05;99945.53;;;16.63;85.94
7168;BME280;3625;51.762;14.320;2023-05-15T07:56:33;99944.25;;;16.52;86.63
7168;BME280;3625;51.762;14.320;2023-05-15T07:59:05;99947.19;;;16.48;87.13
7168;BME280;3625;51.762;14.320;2023-05-15T08:01:35;99767.50;;;15.50;87.45
7168;BME280;3625;51.762;14.320;2023-05-15T08:04:11;99939.31;;;16.62;87.27
7168;BME280;3625;51.762;14.320;2023-05-15T08:06:39;99933.38;;;16.88;87.33
7168;BME280;3625;51.762;14.320;2023-05-15T08:09:10;99897.53;;;16.92;85.71
7168;BME280;3625;51.762;14.320;2023-05-15T08:11:38;99858.75;;;16.85;83.83
7168;BME280;3625;51.762;14.320;2023-05-15T08:14:11;99736.72;;;16.25;82.47
7168;BME280;3625;51.762;14.320;2023-05-15T08:16:49;99687.75;;;15.78;81.68
7168;BME280;3625;51.762;14.320;2023-05-15T08:19:17;99940.09;;;17.27;82.40
7168;BME280;3625;51.762;14.320;2023-05-15T08:21:50;99936.28;;;17.15;82.89
7168;BME280;3625;51.762;14.320;2023-05-15T08:24:21;99799.22;;;16.20;84.01
7168;BME280;3625;51.762;14.320;2023-05-15T08:26:51;99872.66;;;16.43;85.48
7168;BME280;3625;51.762;14.320;2023-05-15T08:29:21;99758.72;;;15.65;85.51
7168;BME280;3625;51.762;14.320;2023-05-15T08:31:52;99849.13;;;16.03;86.82
7168;BME280;3625;51.762;14.320;2023-05-15T08:34:20;99954.28;;;16.49;87.77
7168;BME280;3625;51.762;14.320;2023-05-15T08:36:49;99966.66;;;16.34;86.68
7168;BME280;3625;51.762;14.320;2023-05-15T08:39:18;99962.81;;;16.22;87.94
7168;BME280;3625;51.762;14.320;2023-05-15T08:41:55;99951.81;;;16.29;90.04
7168;BME280;3625;51.762;14.320;2023-05-15T08:44:27;99945.97;;;16.38;89.64
7168;BME280;3625;51.762;14.320;2023-05-15T08:46:57;99856.00;;;15.91;88.33
7168;BME280;3625;51.762;14.320;2023-05-15T08:49:39;99948.59;;;16.55;88.46
7168;BME280;3625;51.762;14.320;2023-05-15T08:52:12;99952.25;;;16.70;88.60
7168;BME280;3625;51.762;14.320;2023-05-15T08:54:44;99850.22;;;16.32;88.22
7168;BME280;3625;51.762;14.320;2023-05-15T08:57:16;99699.78;;;15.54;87.06
7168;BME280;3625;51.762;14.320;2023-05-15T08:59:50;99720.63;;;15.79;86.23
7168;BME280;3625;51.762;14.320;2023-05-15T09:02:20;99947.31;;;17.25;86.51
7168;BME280;3625;51.762;14.320;2023-05-15T09:04:49;99904.22;;;17.15;86.18
7168;BME280;3625;51.762;14.320;2023-05-15T09:07:19;99852.56;;;16.85;86.03
7168;BME280;3625;51.762;14.320;2023-05-15T09:10:00;99942.03;;;17.39;85.46
7168;BME280;3625;51.762;14.320;2023-05-15T09:12:40;99944.13;;;17.34;84.30
7168;BME280;3625;51.762;14.320;2023-05-15T09:15:14;99940.75;;;17.46;83.86
7168;BME280;3625;51.762;14.320;2023-05-15T09:17:44;99936.22;;;17.62;83.99
7168;BME280;3625;51.762;14.320;2023-05-15T09:20:26;99934.63;;;17.74;82.76
7168;BME280;3625;51.762;14.320;2023-05-15T09:22:59;99751.13;;;16.83;81.93
7168;BME280;3625;51.762;14.320;2023-05-15T09:25:36;99943.97;;;18.11;78.73
7168;BME280;3625;51.762;14.320;2023-05-15T09:28:08;99693.31;;;16.96;77.48
7168;BME280;3625;51.762;14.320;2023-05-15T09:30:41;99916.22;;;18.55;76.45
7168;BME280;3625;51.762;14.320;2023-05-15T09:33:10;99931.78;;;18.91;74.75
7168;BME280;3625;51.762;14.320;2023-05-15T09:35:39;99942.38;;;19.06;72.69
7168;BME280;3625;51.762;14.320;2023-05-15T09:38:10;99935.59;;;19.01;72.43
7168;BME280;3625;51.762;14.320;2023-05-15T09:40:40;99903.78;;;19.09;73.52
7168;BME280;3625;51.762;14.320;2023-05-15T09:43:14;99944.34;;;19.44;70.89
7168;BME280;3625;51.762;14.320;2023-05-15T09:45:46;99942.06;;;19.38;70.01
7168;BME280;3625;51.762;14.320;2023-05-15T09:48:16;99945.59;;;19.38;68.68
7168;BME280;3625;51.762;14.320;2023-05-15T09:50:48;99944.28;;;19.31;70.93
7168;BME280;3625;51.762;14.320;2023-05-15T09:53:17;99941.09;;;19.12;71.10
7168;BME280;3625;51.762;14.320;2023-05-15T09:55:48;99939.25;;;18.85;71.09
7168;BME280;3625;51.762;14.320;2023-05-15T09:58:18;99928.38;;;18.60;73.18
7168;BME280;3625;51.762;14.320;2023-05-15T10:00:48;99938.66;;;18.68;74.26
7168;BME280;3625;51.762;14.320;2023-05-15T10:03:19;99874.66;;;18.21;73.02
7168;BME280;3625;51.762;14.320;2023-05-15T10:05:48;99949.22;;;18.55;73.54
7168;BME280;3625;51.762;14.320;2023-05-15T10:08:26;99701.53;;;17.08;74.75
7168;BME280;3625;51.762;14.320;2023-05-15T10:10:59;99939.00;;;18.62;75.67
7168;BME280;3625;51.762;14.320;2023-05-15T10:13:33;99933.56;;;18.63;75.34
7168;BME280;3625;51.762;14.320;2023-05-15T10:16:05;99907.63;;;18.50;75.37
7168;BME280;3625;51.762;14.320;2023-05-15T10:18:37;99934.88;;;18.70;74.98
7168;BME280;3625;51.762;14.320;2023-05-15T10:21:08;99921.31;;;18.73;76.29
7168;BME280;3625;51.762;14.320;2023-05-15T10:23:41;99894.25;;;18.50;77.82
7168;BME280;3625;51.762;14.320;2023-05-15T10:26:19;99923.31;;;18.56;77.29
7168;BME280;3625;51.762;14.320;2023-05-15T10:28:51;99683.09;;;16.89;76.39
7168;BME280;3625;51.762;14.320;2023-05-15T10:31:30;99846.63;;;17.69;77.63
7168;BME280;3625;51.762;14.320;2023-05-15T10:34:00;99909.06;;;18.13;77.13
7168;BME280;3625;51.762;14.320;2023-05-15T10:36:29;99915.00;;;18.18;76.44
7168;BME280;3625;51.762;14.320;2023-05-15T10:39:00;99760.56;;;17.47;74.96
7168;BME280;3625;51.762;14.320;2023-05-15T10:41:32;99909.63;;;18.60;74.83
7168;BME280;3625;51.762;14.320;2023-05-15T10:44:10;99640.19;;;17.20;73.23
7168;BME280;3625;51.762;14.320;2023-05-15T10:46:45;99804.34;;;18.31;73.34
7168;BME280;3625;51.762;14.320;2023-05-15T10:49:14;99816.38;;;18.38;72.47
7168;BME280;3625;51.762;14.320;2023-05-15T10:51:42;99870.56;;;18.84;71.95
7168;BME280;3625;51.762;14.320;2023-05-15T10:54:21;99613.78;;;17.43;70.71
7168;BME280;3625;51.762;14.320;2023-05-15T10:56:49;99855.81;;;19.04;68.92
7168;BME280;3625;51.762;14.320;2023-05-15T10:59:18;99904.97;;;19.44;68.56
7168;BME280;3625;51.762;14.320;2023-05-15T11:01:48;99849.50;;;19.45;67.94
7168;BME280;3625;51.762;14.320;2023-05-15T11:04:22;99695.16;;;19.14;66.51
7168;BME280;3625;51.762;14.320;2023-05-15T11:07:11;99912.06;;;20.85;60.67
7168;BME280;3625;51.762;14.320;2023-05-15T11:09:40;99920.66;;;20.90;60.16
7168;BME280;3625;51.762;14.320;2023-05-15T11:12:09;99907.00;;;20.93;60.03
7168;BME280;3625;51.762;14.320;2023-05-15T11:14:43;99883.97;;;20.89;58.13
7168;BME280;3625;51.762;14.320;2023-05-15T11:17:32;99653.19;;;19.64;55.44
7168;BME280;3625;51.762;14.320;2023-05-15T11:20:01;99876.84;;;21.00;56.44
7168;BME280;3625;51.762;14.320;2023-05-15T11:22:32;99849.66;;;20.92;54.44
7168;BME280;3625;51.762;14.320;2023-05-15T11:25:04;99902.34;;;20.95;55.16
7168;BME280;3625;51.762;14.320;2023-05-15T11:27:39;99646.03;;;19.51;55.63
7168;BME280;3625;51.762;14.320;2023-05-15T11:30:19;99727.84;;;19.95;56.18
7168;BME280;3625;51.762;14.320;2023-05-15T11:32:54;99904.06;;;20.96;56.01
7168;BME280;3625;51.762;14.320;2023-05-15T11:35:27;99897.72;;;20.97;57.66
7168;BME280;3625;51.762;14.320;2023-05-15T11:38:02;99885.00;;;20.75;57.76
7168;BME280;3625;51.762;14.320;2023-05-15T11:40:44;99815.56;;;20.20;59.21
7168;BME280;3625;51.762;14.320;2023-05-15T11:43:19;99633.50;;;19.14;60.66
7168;BME280;3625;51.762;14.320;2023-05-15T11:45:53;99685.84;;;19.32;59.64
7168;BME280;3625;51.762;14.320;2023-05-15T11:48:32;99772.22;;;19.75;60.23
7168;BME280;3625;51.762;14.320;2023-05-15T11:51:02;99687.22;;;19.25;60.44
7168;BME280;3625;51.762;14.320;2023-05-15T11:53:34;99765.25;;;19.73;58.90
7168;BME280;3625;51.762;14.320;2023-05-15T11:56:03;99729.72;;;19.44;59.46
7168;BME280;3625;51.762;14.320;2023-05-15T11:58:35;99863.50;;;20.13;56.44
7168;BME280;3625;51.762;14.320;2023-05-15T12:01:03;99584.66;;;18.45;56.83
7168;BME280;3625;51.762;14.320;2023-05-15T12:03:36;99817.41;;;19.81;56.15
7168;BME280;3625;51.762;14.320;2023-05-15T12:06:05;99856.72;;;20.20;56.15
7168;BME280;3625;51.762;14.320;2023-05-15T12:08:36;99850.66;;;20.55;55.51
7168;BME280;3625;51.762;14.320;2023-05-15T12:11:05;99720.91;;;19.80;53.00
7168;BME280;3625;51.762;14.320;2023-05-15T12:13:44;99855.69;;;20.59;53.84
7168;BME280;3625;51.762;14.320;2023-05-15T12:16:12;99859.38;;;20.46;54.65
7168;BME280;3625;51.762;14.320;2023-05-15T12:18:49;99850.25;;;20.36;55.75
7168;BME280;3625;51.762;14.320;2023-05-15T12:21:18;99831.56;;;20.21;55.86
7168;BME280;3625;51.762;14.320;2023-05-15T12:23:50;99696.69;;;19.18;54.06
7168;BME280;3625;51.762;14.320;2023-05-15T12:26:41;99567.50;;;18.35;54.20
7168;BME280;3625;51.762;14.320;2023-05-15T12:29:12;99842.75;;;20.03;55.06
7168;BME280;3625;51.762;14.320;2023-05-15T12:31:42;99760.97;;;19.57;54.89
7168;BME280;3625;51.762;14.320;2023-05-15T12:34:13;99787.59;;;19.73;55.28
7168;BME280;3625;51.762;14.320;2023-05-15T12:36:41;99758.28;;;19.57;55.05
7168;BME280;3625;51.762;14.320;2023-05-15T12:39:12;99823.75;;;20.06;55.15
7168;BME280;3625;51.762;14.320;2023-05-15T12:41:41;99837.34;;;20.28;54.61
7168;BME280;3625;51.762;14.320;2023-05-15T12:44:15;99762.88;;;19.81;54.19
7168;BME280;3625;51.762;14.320;2023-05-15T12:46:44;99550.63;;;18.73;54.36
7168;BME280;3625;51.762;14.320;2023-05-15T12:49:20;99802.09;;;20.32;54.66
7168;BME280;3625;51.762;14.320;2023-05-15T12:51:50;99753.94;;;19.93;53.76
7168;BME280;3625;51.762;14.320;2023-05-15T12:54:23;99667.16;;;19.43;53.88
7168;BME280;3625;51.762;14.320;2023-05-15T12:56:52;99811.88;;;20.33;54.32
7168;BME280;3625;51.762;14.320;2023-05-15T12:59:26;99817.53;;;20.54;53.99
7168;BME280;3625;51.762;14.320;2023-05-15T13:01:56;99634.47;;;19.87;53.76
7168;BME280;3625;51.762;14.320;2023-05-15T13:04:26;99658.19;;;20.41;52.91
7168;BME280;3625;51.762;14.320;2023-05-15T13:06:55;99812.53;;;21.78;51.74
7168;BME280;3625;51.762;14.320;2023-05-15T13:09:24;99774.09;;;21.76;50.87
7168;BME280;3625;51.762;14.320;2023-05-15T13:11:54;99664.81;;;21.18;50.24
7168;BME280;3625;51.762;14.320;2023-05-15T13:14:24;99806.44;;;22.21;50.63
7168;BME280;3625;51.762;14.320;2023-05-15T13:17:01;99664.91;;;21.28;49.30
7168;BME280;3625;51.762;14.320;2023-05-15T13:19:33;99766.13;;;21.64;50.12
7168;BME280;3625;51.762;14.320;2023-05-15T13:22:01;99812.38;;;21.80;51.13